sensor_id;sensor_type;location;lat;lon;timestamp;P1;P2;P0
12246;PMS7003;6186;52.022;4.692;2023-03-24T00:02:04;4.40;4.00;1.20
12246;PMS7003;6186;52.022;4.692;2023-03-24T00:04:31;5.00;4.00;2.00
12246;PMS7003;6186;52.022;4.692;2023-03-24T00:06:57;4.00;3.40;1.00
12246;PMS7003;6186;52.022;4.692;2023-03-24T00:09:25;4.80;4.00;2.00
12246;PMS7003;6186;52.022;4.692;2023-03-24T00:11:52;3.00;3.00;1.20
12246;PMS7003;6186;52.022;4.692;2023-03-24T00:14:17;4.00;4.00;2.00
12246;PMS7003;6186;52.022;4.692;2023-03-24T00:16:43;3.75;3.75;1.25
12246;PMS7003;6186;52.022;4.692;2023-03-24T00:19:09;4.00;4.00;2.00
12246;PMS7003;6186;52.022;4.692;2023-03-24T00:21:37;4.00;4.00;2.00
12246;PMS7003;6186;52.022;4.692;2023-03-24T00:24:03;4.00;4.00;2.00
12246;PMS7003;6186;52.022;4.692;2023-03-24T00:26:29;4.00;4.00;1.00
12246;PMS7003;6186;52.022;4.692;2023-03-24T00:28:55;4.40;3.40;1.40
12246;PMS7003;6186;52.022;4.692;2023-03-24T00:31:22;3.80;3.80;1.00
12246;PMS7003;6186;52.022;4.692;2023-03-24T00:33:48;4.40;4.00;1.60
12246;PMS7003;6186;52.022;4.692;2023-03-24T00:36:15;4.00;4.00;2.00
12246;PMS7003;6186;52.022;4.692;2023-03-24T00:38:43;4.00;4.00;2.00
12246;PMS7003;6186;52.022;4.692;2023-03-24T00:41:11;4.00;4.00;2.00
12246;PMS7003;6186;52.022;4.692;2023-03-24T00:43:36;3.25;3.25;1.00
12246;PMS7003;6186;52.022;4.692;2023-03-24T00:46:03;5.00;5.00;2.25
12246;PMS7003;6186;52.022;4.692;2023-03-24T00:48:32;4.40;4.40;2.00
12246;PMS7003;6186;52.022;4.692;2023-03-24T00:51:00;4.20;4.00;2.00
12246;PMS7003;6186;52.022;4.692;2023-03-24T00:53:27;5.00;4.00;2.00
12246;PMS7003;6186;52.022;4.692;2023-03-24T00:55:53;4.00;4.00;2.00
12246;PMS7003;6186;52.022;4.692;2023-03-24T00:58:19;5.00;4.40;2.00
12246;PMS7003;6186;52.022;4.692;2023-03-24T01:00:51;4.00;4.00;2.00
12246;PMS7003;6186;52.022;4.692;2023-03-24T01:03:20;4.20;4.00;1.80
12246;PMS7003;6186;52.022;4.692;2023-03-24T01:05:49;5.00;5.00;2.20
12246;PMS7003;6186;52.022;4.692;2023-03-24T01:08:15;6.00;5.00;2.00
12246;PMS7003;6186;52.022;4.692;2023-03-24T01:10:44;4.80;4.00;1.60
12246;PMS7003;6186;52.022;4.692;2023-03-24T01:13:24;4.00;4.00;2.00
12246;PMS7003;6186;52.022;4.692;2023-03-24T01:15:52;4.00;3.00;1.80
12246;PMS7003;6186;52.022;4.692;2023-03-24T01:18:18;3.20;3.20;2.00
12246;PMS7003;6186;52.022;4.692;2023-03-24T01:20:44;4.60;4.00;2.00
12246;PMS7003;6186;52.022;4.692;2023-03-24T01:23:13;4.00;4.00;2.00
12246;PMS7003;6186;52.022;4.692;2023-03-24T01:25:44;4.00;4.00;1.20
12246;PMS7003;6186;52.022;4.692;2023-03-24T01:28:12;4.00;4.00;1.00
12246;PMS7003;6186;52.022;4.692;2023-03-24T01:30:39;4.00;3.00;1.00
12246;PMS7003;6186;52.022;4.692;2023-03-24T01:33:04;4.50;4.50;2.00
12246;PMS7003;6186;52.022;4.692;2023-03-24T01:35:30;4.40;4.00;2.00
12246;PMS7003;6186;52.022;4.692;2023-03-24T01:37:57;3.80;3.80;2.00
12246;PMS7003;6186;52.022;4.692;2023-03-24T01:40:25;4.40;4.40;2.00
12246;PMS7003;6186;52.022;4.692;2023-03-24T01:42:52;4.00;4.00;2.00
12246;PMS7003;6186;52.022;4.692;2023-03-24T01:50:57;4.20;4.00;2.20
12246;PMS7003;6186;52.022;4.692;2023-03-24T01:53:27;4.40;4.20;1.60
12246;PMS7003;6186;52.022;4.692;2023-03-24T01:55:55;4.20;4.20;2.00
12246;PMS7003;6186;52.022;4.692;2023-03-24T01:58:22;4.00;3.40;1.00
12246;PMS7003;6186;52.022;4.692;2023-03-24T02:00:49;3.80;3.00;1.00
12246;PMS7003;6186;52.022;4.692;2023-03-24T02:03:16;2.50;2.50;1.00
12246;PMS7003;6186;52.022;4.692;2023-03-24T02:05:45;3.00;3.00;0.80
12246;PMS7003;6186;52.022;4.692;2023-03-24T02:08:28;2.40;2.00;0.00
12246;PMS7003;6186;52.022;4.692;2023-03-24T02:10:59;2.00;2.00;0.20
12246;PMS7003;6186;52.022;4.692;2023-03-24T02:13:25;2.00;2.00;0.00
12246;PMS7003;6186;52.022;4.692;2023-03-24T02:15:56;1.50;1.50;0.00
12246;PMS7003;6186;52.022;4.692;2023-03-24T02:18:36;1.60;1.60;0.00
12246;PMS7003;6186;52.022;4.692;2023-03-24T02:27:01;1.40;1.40;0.00
12246;PMS7003;6186;52.022;4.692;2023-03-24T02:40:21;2.00;2.00;0.00
12246;PMS7003;6186;52.022;4.692;2023-03-24T02:42:59;1.00;1.00;0.00
12246;PMS7003;6186;52.022;4.692;2023-03-24T02:45:44;1.80;1.80;0.00
12246;PMS7003;6186;52.022;4.692;2023-03-24T02:51:58;2.00;1.60;0.00
12246;PMS7003;6186;52.022;4.692;2023-03-24T03:00:15;3.00;1.00;0.00
12246;PMS7003;6186;52.022;4.692;2023-03-24T03:02:56;1.80;1.80;0.00
12246;PMS7003;6186;52.022;4.692;2023-03-24T03:05:31;1.60;1.00;0.00
12246;PMS7003;6186;52.022;4.692;2023-03-24T03:08:01;3.00;1.40;0.00
12246;PMS7003;6186;52.022;4.692;2023-03-24T03:10:32;1.80;1.80;0.00
12246;PMS7003;6186;52.022;4.692;2023-03-24T03:13:03;2.60;1.60;0.00
12246;PMS7003;6186;52.022;4.692;2023-03-24T03:15:36;2.00;1.20;0.00
12246;PMS7003;6186;52.022;4.692;2023-03-24T03:18:10;1.00;1.00;0.00
12246;PMS7003;6186;52.022;4.692;2023-03-24T03:20:42;2.00;2.00;0.00
12246;PMS7003;6186;52.022;4.692;2023-03-24T03:23:28;2.20;1.80;0.00
12246;PMS7003;6186;52.022;4.692;2023-03-24T03:26:00;2.80;2.00;0.00
12246;PMS7003;6186;52.022;4.692;2023-03-24T03:28:31;2.60;1.40;0.00
12246;PMS7003;6186;52.022;4.692;2023-03-24T03:31:01;2.00;2.00;0.20
12246;PMS7003;6186;52.022;4.692;2023-03-24T03:33:33;2.00;2.00;0.00
12246;PMS7003;6186;52.022;4.692;2023-03-24T03:41:37;2.00;2.00;0.00
12246;PMS7003;6186;52.022;4.692;2023-03-24T03:44:04;2.40;2.40;1.00
12246;PMS7003;6186;52.022;4.692;2023-03-24T03:46:30;3.00;2.40;0.00
12246;PMS7003;6186;52.022;4.692;2023-03-24T03:48:55;3.00;2.25;1.00
12246;PMS7003;6186;52.022;4.692;2023-03-24T03:51:21;4.75;3.00;1.00
12246;PMS7003;6186;52.022;4.692;2023-03-24T03:53:47;2.25;2.25;1.00
12246;PMS7003;6186;52.022;4.692;2023-03-24T03:56:17;2.00;2.00;1.00
12246;PMS7003;6186;52.022;4.692;2023-03-24T03:58:45;3.80;3.00;1.00
12246;PMS7003;6186;52.022;4.692;2023-03-24T04:01:12;2.20;2.20;0.00
12246;PMS7003;6186;52.022;4.692;2023-03-24T04:06:32;2.80;2.60;0.80
12246;PMS7003;6186;52.022;4.692;2023-03-24T04:17:49;3.40;2.00;0.00
12246;PMS7003;6186;52.022;4.692;2023-03-24T04:23:18;3.60;2.40;1.00
12246;PMS7003;6186;52.022;4.692;2023-03-24T04:28:29;2.80;2.20;0.00
12246;PMS7003;6186;52.022;4.692;2023-03-24T04:31:34;3.20;2.60;0.00
12246;PMS7003;6186;52.022;4.692;2023-03-24T04:34:10;4.00;2.00;0.00
12246;PMS7003;6186;52.022;4.692;2023-03-24T04:36:53;3.00;3.00;0.20
12246;PMS7003;6186;52.022;4.692;2023-03-24T04:39:28;2.80;2.00;0.00
12246;PMS7003;6186;52.022;4.692;2023-03-24T04:41:57;2.00;2.00;0.00
12246;PMS7003;6186;52.022;4.692;2023-03-24T04:44:25;5.40;4.00;1.00
12246;PMS7003;6186;52.022;4.692;2023-03-24T04:46:53;3.80;3.00;1.00
12246;PMS7003;6186;52.022;4.692;2023-03-24T04:49:22;5.00;3.40;0.80
12246;PMS7003;6186;52.022;4.692;2023-03-24T04:51:51;3.20;2.20;0.00
12246;PMS7003;6186;52.022;4.692;2023-03-24T04:54:17;2.80;2.20;1.00
12246;PMS7003;6186;52.022;4.692;2023-03-24T04:56:47;2.00;2.00;0.00
12246;PMS7003;6186;52.022;4.692;2023-03-24T04:59:15;2.40;1.80;0.00
12246;PMS7003;6186;52.022;4.692;2023-03-24T05:01:42;3.00;2.00;0.00
12246;PMS7003;6186;52.022;4.692;2023-03-24T05:04:13;2.00;2.00;0.00
12246;PMS7003;6186;52.022;4.692;2023-03-24T05:06:38;3.00;2.25;0.00
12246;PMS7003;6186;52.022;4.692;2023-03-24T05:09:04;3.50;3.00;0.25
12246;PMS7003;6186;52.022;4.692;2023-03-24T05:11:29;4.50;4.00;0.75
12246;PMS7003;6186;52.022;4.692;2023-03-24T05:13:54;4.00;3.00;0.00
12246;PMS7003;6186;52.022;4.692;2023-03-24T05:16:20;3.00;2.00;0.00
12246;PMS7003;6186;52.022;4.692;2023-03-24T05:18:46;2.25;2.00;0.00
12246;PMS7003;6186;52.022;4.692;2023-03-24T05:21:11;3.25;3.00;0.25
12246;PMS7003;6186;52.022;4.692;2023-03-24T05:23:36;2.25;2.00;0.00
12246;PMS7003;6186;52.022;4.692;2023-03-24T05:26:02;2.25;2.25;0.00
12246;PMS7003;6186;52.022;4.692;2023-03-24T05:28:29;2.00;1.60;0.00
12246;PMS7003;6186;52.022;4.692;2023-03-24T05:30:54;2.50;2.00;0.00
12246;PMS7003;6186;52.022;4.692;2023-03-24T05:33:20;4.00;3.00;0.00
12246;PMS7003;6186;52.022;4.692;2023-03-24T05:35:45;3.00;2.75;0.00
12246;PMS7003;6186;52.022;4.692;2023-03-24T05:38:12;3.50;2.75;0.00
12246;PMS7003;6186;52.022;4.692;2023-03-24T05:40:37;3.00;2.40;0.00
12246;PMS7003;6186;52.022;4.692;2023-03-24T05:43:03;4.25;3.00;1.00
12246;PMS7003;6186;52.022;4.692;2023-03-24T05:45:28;1.50;1.50;0.00
12246;PMS7003;6186;52.022;4.692;2023-03-24T05:47:54;3.40;3.00;0.00
12246;PMS7003;6186;52.022;4.692;2023-03-24T05:50:19;4.75;3.00;1.00
12246;PMS7003;6186;52.022;4.692;2023-03-24T05:52:45;3.00;2.00;0.00
12246;PMS7003;6186;52.022;4.692;2023-03-24T05:55:11;3.00;3.00;0.75
12246;PMS7003;6186;52.022;4.692;2023-03-24T05:57:36;5.00;3.00;1.00
12246;PMS7003;6186;52.022;4.692;2023-03-24T06:00:02;2.00;2.00;0.00
12246;PMS7003;6186;52.022;4.692;2023-03-24T06:02:34;2.00;2.00;0.80
12246;PMS7003;6186;52.022;4.692;2023-03-24T06:05:00;3.00;2.00;1.00
12246;PMS7003;6186;52.022;4.692;2023-03-24T06:07:25;3.25;3.00;0.00
12246;PMS7003;6186;52.022;4.692;2023-03-24T06:09:54;3.00;2.40;0.80
12246;PMS7003;6186;52.022;4.692;2023-03-24T06:12:22;3.00;3.00;0.80
12246;PMS7003;6186;52.022;4.692;2023-03-24T06:14:47;3.60;2.40;0.00
12246;PMS7003;6186;52.022;4.692;2023-03-24T06:17:13;3.25;3.00;0.00
12246;PMS7003;6186;52.022;4.692;2023-03-24T06:19:39;3.50;3.25;1.00
12246;PMS7003;6186;52.022;4.692;2023-03-24T06:22:14;2.20;2.00;0.00
12246;PMS7003;6186;52.022;4.692;2023-03-24T06:24:40;5.00;4.00;1.00
12246;PMS7003;6186;52.022;4.692;2023-03-24T06:27:06;2.00;2.00;0.00
12246;PMS7003;6186;52.022;4.692;2023-03-24T06:29:33;3.00;2.80;0.00
12246;PMS7003;6186;52.022;4.692;2023-03-24T06:31:59;3.20;2.40;0.00
12246;PMS7003;6186;52.022;4.692;2023-03-24T06:34:24;3.00;2.00;0.00
12246;PMS7003;6186;52.022;4.692;2023-03-24T06:36:50;3.25;2.50;0.00
12246;PMS7003;6186;52.022;4.692;2023-03-24T06:39:16;3.00;2.40;0.60
12246;PMS7003;6186;52.022;4.692;2023-03-24T06:41:42;3.40;2.20;0.00
12246;PMS7003;6186;52.022;4.692;2023-03-24T06:44:07;2.50;2.00;0.00
12246;PMS7003;6186;52.022;4.692;2023-03-24T06:46:32;2.00;2.00;0.00
12246;PMS7003;6186;52.022;4.692;2023-03-24T06:48:58;3.00;3.00;0.75
12246;PMS7003;6186;52.022;4.692;2023-03-24T06:51:23;3.00;3.00;0.00
12246;PMS7003;6186;52.022;4.692;2023-03-24T06:53:49;4.00;3.00;1.00
12246;PMS7003;6186;52.022;4.692;2023-03-24T06:56:14;2.75;2.25;0.25
12246;PMS7003;6186;52.022;4.692;2023-03-24T06:58:42;3.60;2.80;0.00
12246;PMS7003;6186;52.022;4.692;2023-03-24T07:01:08;2.00;2.00;0.00
12246;PMS7003;6186;52.022;4.692;2023-03-24T07:03:35;2.00;2.00;0.60
12246;PMS7003;6186;52.022;4.692;2023-03-24T07:06:00;3.00;2.25;0.00
12246;PMS7003;6186;52.022;4.692;2023-03-24T07:08:26;4.50;3.00;1.00
12246;PMS7003;6186;52.022;4.692;2023-03-24T07:10:51;2.00;2.00;0.25
12246;PMS7003;6186;52.022;4.692;2023-03-24T07:13:16;2.50;2.25;0.00
12246;PMS7003;6186;52.022;4.692;2023-03-24T07:15:42;2.00;2.00;0.00
12246;PMS7003;6186;52.022;4.692;2023-03-24T07:18:07;3.00;2.00;0.00
12246;PMS7003;6186;52.022;4.692;2023-03-24T07:20:32;3.25;2.00;0.25
12246;PMS7003;6186;52.022;4.692;2023-03-24T07:22:58;2.75;2.00;1.00
12246;PMS7003;6186;52.022;4.692;2023-03-24T07:25:23;3.50;3.00;1.00
12246;PMS7003;6186;52.022;4.692;2023-03-24T07:27:52;2.80;2.80;1.00
12246;PMS7003;6186;52.022;4.692;2023-03-24T07:30:18;2.40;1.80;0.00
12246;PMS7003;6186;52.022;4.692;2023-03-24T07:32:43;3.00;2.75;0.75
12246;PMS7003;6186;52.022;4.692;2023-03-24T07:35:09;3.00;2.25;1.00
12246;PMS7003;6186;52.022;4.692;2023-03-24T07:37:36;2.80;2.80;0.00
12246;PMS7003;6186;52.022;4.692;2023-03-24T07:40:05;3.75;3.00;1.00
12246;PMS7003;6186;52.022;4.692;2023-03-24T07:42:33;4.20;3.00;0.00
12246;PMS7003;6186;52.022;4.692;2023-03-24T07:44:58;5.75;3.75;1.00
12246;PMS7003;6186;52.022;4.692;2023-03-24T07:47:24;3.00;3.00;1.00
12246;PMS7003;6186;52.022;4.692;2023-03-24T07:49:49;3.00;3.00;1.00
12246;PMS7003;6186;52.022;4.692;2023-03-24T07:52:14;3.75;3.75;1.00
12246;PMS7003;6186;52.022;4.692;2023-03-24T07:54:40;3.00;2.00;1.00
12246;PMS7003;6186;52.022;4.692;2023-03-24T07:57:05;3.00;3.00;1.00
12246;PMS7003;6186;52.022;4.692;2023-03-24T07:59:30;3.00;3.00;1.00
12246;PMS7003;6186;52.022;4.692;2023-03-24T08:01:57;5.40;2.80;1.00
12246;PMS7003;6186;52.022;4.692;2023-03-24T08:04:23;3.00;2.40;1.00
12246;PMS7003;6186;52.022;4.692;2023-03-24T08:06:50;4.80;3.80;1.00
12246;PMS7003;6186;52.022;4.692;2023-03-24T08:09:17;3.60;3.00;1.00
12246;PMS7003;6186;52.022;4.692;2023-03-24T08:11:42;4.00;4.00;1.00
12246;PMS7003;6186;52.022;4.692;2023-03-24T08:14:08;4.75;4.50;2.00
12246;PMS7003;6186;52.022;4.692;2023-03-24T08:16:33;4.25;3.00;1.00
12246;PMS7003;6186;52.022;4.692;2023-03-24T08:18:58;3.75;3.75;1.00
12246;PMS7003;6186;52.022;4.692;2023-03-24T08:21:24;3.50;3.50;1.25
12246;PMS7003;6186;52.022;4.692;2023-03-24T08:23:50;4.20;4.00;1.00
12246;PMS7003;6186;52.022;4.692;2023-03-24T08:26:16;5.25;3.50;1.75
12246;PMS7003;6186;52.022;4.692;2023-03-24T08:28:41;5.25;5.00;1.75
12246;PMS7003;6186;52.022;4.692;2023-03-24T08:31:07;3.00;3.00;1.00
12246;PMS7003;6186;52.022;4.692;2023-03-24T08:33:33;3.00;3.00;0.80
12246;PMS7003;6186;52.022;4.692;2023-03-24T08:35:59;3.80;3.20;1.00
12246;PMS7003;6186;52.022;4.692;2023-03-24T08:38:25;4.25;4.00;2.00
12246;PMS7003;6186;52.022;4.692;2023-03-24T08:40:55;3.00;3.00;0.60
12246;PMS7003;6186;52.022;4.692;2023-03-24T08:43:22;4.20;3.40;1.00
12246;PMS7003;6186;52.022;4.692;2023-03-24T08:45:49;3.20;3.00;1.00
12246;PMS7003;6186;52.022;4.692;2023-03-24T08:48:15;3.20;3.00;1.00
12246;PMS7003;6186;52.022;4.692;2023-03-24T08:50:41;3.50;3.00;1.00
12246;PMS7003;6186;52.022;4.692;2023-03-24T08:53:07;3.00;3.00;1.00
12246;PMS7003;6186;52.022;4.692;2023-03-24T08:55:33;4.20;3.60;1.00
12246;PMS7003;6186;52.022;4.692;2023-03-24T08:58:01;2.40;2.40;1.00
12246;PMS7003;6186;52.022;4.692;2023-03-24T09:00:27;4.00;2.75;1.00
12246;PMS7003;6186;52.022;4.692;2023-03-24T09:02:53;4.20;4.20;2.00
12246;PMS7003;6186;52.022;4.692;2023-03-24T09:05:20;3.80;3.80;2.00
12246;PMS7003;6186;52.022;4.692;2023-03-24T09:07:47;3.60;3.60;1.00
12246;PMS7003;6186;52.022;4.692;2023-03-24T09:10:14;4.00;3.20;1.00
12246;PMS7003;6186;52.022;4.692;2023-03-24T09:12:40;3.40;3.40;1.00
12246;PMS7003;6186;52.022;4.692;2023-03-24T09:15:07;4.00;4.00;1.80
12246;PMS7003;6186;52.022;4.692;2023-03-24T09:17:34;4.40;3.00;0.80
12246;PMS7003;6186;52.022;4.692;2023-03-24T09:20:01;3.00;3.00;1.00
12246;PMS7003;6186;52.022;4.692;2023-03-24T09:22:31;3.20;2.00;0.20
12246;PMS7003;6186;52.022;4.692;2023-03-24T09:24:56;2.75;2.00;0.00
12246;PMS7003;6186;52.022;4.692;2023-03-24T09:27:22;4.00;3.00;1.00
12246;PMS7003;6186;52.022;4.692;2023-03-24T09:29:48;4.00;4.00;1.00
12246;PMS7003;6186;52.022;4.692;2023-03-24T09:32:13;2.75;2.75;0.75
12246;PMS7003;6186;52.022;4.692;2023-03-24T09:34:38;4.00;2.75;1.00
12246;PMS7003;6186;52.022;4.692;2023-03-24T09:37:04;3.25;3.25;1.25
12246;PMS7003;6186;52.022;4.692;2023-03-24T09:39:30;3.00;2.80;1.00
12246;PMS7003;6186;52.022;4.692;2023-03-24T09:41:55;3.75;3.00;1.00
12246;PMS7003;6186;52.022;4.692;2023-03-24T09:46:53;2.00;2.00;0.20
12246;PMS7003;6186;52.022;4.692;2023-03-24T09:49:28;3.00;2.20;1.00
12246;PMS7003;6186;52.022;4.692;2023-03-24T09:52:08;3.20;3.00;1.00
12246;PMS7003;6186;52.022;4.692;2023-03-24T09:54:43;3.00;3.00;0.00
12246;PMS7003;6186;52.022;4.692;2023-03-24T09:57:24;3.00;2.00;0.00
12246;PMS7003;6186;52.022;4.692;2023-03-24T09:59:52;4.00;3.00;1.00
12246;PMS7003;6186;52.022;4.692;2023-03-24T10:02:18;3.00;2.00;0.00
12246;PMS7003;6186;52.022;4.692;2023-03-24T10:04:46;2.00;2.00;0.00
12246;PMS7003;6186;52.022;4.692;2023-03-24T10:09:45;2.80;2.80;1.00
12246;PMS7003;6186;52.022;4.692;2023-03-24T10:12:28;4.60;3.60;0.60
12246;PMS7003;6186;52.022;4.692;2023-03-24T10:28:52;3.60;3.60;1.00
12246;PMS7003;6186;52.022;4.692;2023-03-24T10:31:32;4.80;4.20;1.60
12246;PMS7003;6186;52.022;4.692;2023-03-24T10:33:59;3.00;3.00;1.00
12246;PMS7003;6186;52.022;4.692;2023-03-24T10:36:25;4.00;3.00;1.00
12246;PMS7003;6186;52.022;4.692;2023-03-24T10:38:52;3.20;3.20;1.20
12246;PMS7003;6186;52.022;4.692;2023-03-24T10:41:27;4.00;3.75;2.00
12246;PMS7003;6186;52.022;4.692;2023-03-24T10:43:53;4.40;3.00;1.00
12246;PMS7003;6186;52.022;4.692;2023-03-24T10:46:22;5.00;3.00;1.00
12246;PMS7003;6186;52.022;4.692;2023-03-24T10:48:51;4.00;3.00;0.80
12246;PMS7003;6186;52.022;4.692;2023-03-24T10:51:31;4.00;3.40;1.00
12246;PMS7003;6186;52.022;4.692;2023-03-24T10:54:11;3.00;2.60;1.00
12246;PMS7003;6186;52.022;4.692;2023-03-24T10:56:47;5.00;5.00;2.00
12246;PMS7003;6186;52.022;4.692;2023-03-24T11:04:38;4.00;3.00;1.00
12246;PMS7003;6186;52.022;4.692;2023-03-24T11:09:40;3.00;3.00;1.00
12246;PMS7003;6186;52.022;4.692;2023-03-24T11:12:20;5.00;3.00;1.00
12246;PMS7003;6186;52.022;4.692;2023-03-24T11:14:50;2.80;2.00;0.00
12246;PMS7003;6186;52.022;4.692;2023-03-24T11:17:18;3.20;3.00;1.00
12246;PMS7003;6186;52.022;4.692;2023-03-24T11:19:54;4.00;3.20;1.00
12246;PMS7003;6186;52.022;4.692;2023-03-24T11:22:21;2.00;2.00;0.00
12246;PMS7003;6186;52.022;4.692;2023-03-24T11:24:51;2.20;2.00;0.20
12246;PMS7003;6186;52.022;4.692;2023-03-24T11:27:19;2.60;2.00;0.20
12246;PMS7003;6186;52.022;4.692;2023-03-24T11:29:49;3.00;3.00;1.00
12246;PMS7003;6186;52.022;4.692;2023-03-24T11:32:21;3.80;2.00;0.00
12246;PMS7003;6186;52.022;4.692;2023-03-24T11:34:49;2.00;2.00;0.00
12246;PMS7003;6186;52.022;4.692;2023-03-24T11:37:45;2.00;1.60;0.00
12246;PMS7003;6186;52.022;4.692;2023-03-24T11:43:10;1.75;1.75;0.00
12246;PMS7003;6186;52.022;4.692;2023-03-24T11:47:59;1.40;1.40;0.00
12246;PMS7003;6186;52.022;4.692;2023-03-24T11:50:29;2.20;2.00;0.00
12246;PMS7003;6186;52.022;4.692;2023-03-24T11:53:16;1.00;1.00;0.00
12246;PMS7003;6186;52.022;4.692;2023-03-24T12:00:48;1.00;1.00;0.00
12246;PMS7003;6186;52.022;4.692;2023-03-24T12:03:56;2.40;1.80;0.00
12246;PMS7003;6186;52.022;4.692;2023-03-24T12:06:33;3.40;1.80;0.00
12246;PMS7003;6186;52.022;4.692;2023-03-24T12:09:31;3.20;2.00;0.20
12246;PMS7003;6186;52.022;4.692;2023-03-24T12:17:39;1.80;1.80;0.00
12246;PMS7003;6186;52.022;4.692;2023-03-24T12:20:15;3.40;2.00;0.00
12246;PMS7003;6186;52.022;4.692;2023-03-24T12:28:57;2.40;2.40;0.00
12246;PMS7003;6186;52.022;4.692;2023-03-24T12:34:12;2.00;2.00;0.00
12246;PMS7003;6186;52.022;4.692;2023-03-24T12:37:01;2.00;2.00;0.00
12246;PMS7003;6186;52.022;4.692;2023-03-24T12:39:34;2.80;2.40;0.00
12246;PMS7003;6186;52.022;4.692;2023-03-24T12:42:15;2.00;1.20;0.00
12246;PMS7003;6186;52.022;4.692;2023-03-24T12:50:41;2.00;2.00;0.00
12246;PMS7003;6186;52.022;4.692;2023-03-24T12:59:40;1.20;1.20;0.00
12246;PMS7003;6186;52.022;4.692;2023-03-24T13:05:06;2.00;2.00;0.00
12246;PMS7003;6186;52.022;4.692;2023-03-24T13:07:40;2.00;2.00;0.00
12246;PMS7003;6186;52.022;4.692;2023-03-24T13:10:26;2.60;2.00;0.40
12246;PMS7003;6186;52.022;4.692;2023-03-24T13:12:58;1.00;1.00;0.00
12246;PMS7003;6186;52.022;4.692;2023-03-24T13:15:45;2.20;2.00;0.00
12246;PMS7003;6186;52.022;4.692;2023-03-24T13:18:21;3.80;2.00;0.00
12246;PMS7003;6186;52.022;4.692;2023-03-24T13:21:05;2.00;2.00;0.00
12246;PMS7003;6186;52.022;4.692;2023-03-24T13:32:03;3.00;3.00;0.00
12246;PMS7003;6186;52.022;4.692;2023-03-24T13:34:33;3.80;2.00;0.00
12246;PMS7003;6186;52.022;4.692;2023-03-24T13:39:39;1.80;1.00;0.00
12246;PMS7003;6186;52.022;4.692;2023-03-24T13:42:19;1.00;1.00;0.00
12246;PMS7003;6186;52.022;4.692;2023-03-24T13:44:51;2.00;2.00;0.00
12246;PMS7003;6186;52.022;4.692;2023-03-24T13:47:17;1.50;1.00;0.00
12246;PMS7003;6186;52.022;4.692;2023-03-24T13:49:59;2.00;2.00;0.00
12246;PMS7003;6186;52.022;4.692;2023-03-24T13:55:07;3.00;2.00;0.00
12246;PMS7003;6186;52.022;4.692;2023-03-24T13:57:39;2.40;1.00;0.00
12246;PMS7003;6186;52.022;4.692;2023-03-24T14:00:20;3.40;2.00;0.00
12246;PMS7003;6186;52.022;4.692;2023-03-24T14:10:37;1.00;1.00;0.00
12246;PMS7003;6186;52.022;4.692;2023-03-24T14:15:55;2.00;2.00;0.00
12246;PMS7003;6186;52.022;4.692;2023-03-24T14:23:22;2.00;2.00;0.00
12246;PMS7003;6186;52.022;4.692;2023-03-24T14:25:58;2.00;2.00;0.00
12246;PMS7003;6186;52.022;4.692;2023-03-24T14:28:36;2.00;1.75;0.00
12246;PMS7003;6186;52.022;4.692;2023-03-24T14:36:17;2.00;2.00;0.00
12246;PMS7003;6186;52.022;4.692;2023-03-24T14:38:49;3.00;2.00;0.00
12246;PMS7003;6186;52.022;4.692;2023-03-24T14:41:16;2.80;2.40;0.00
12246;PMS7003;6186;52.022;4.692;2023-03-24T14:43:52;3.00;2.60;0.00
12246;PMS7003;6186;52.022;4.692;2023-03-24T14:49:17;3.60;3.00;0.00
12246;PMS7003;6186;52.022;4.692;2023-03-24T14:54:44;2.00;2.00;0.00
12246;PMS7003;6186;52.022;4.692;2023-03-24T15:02:40;1.40;1.40;0.00
12246;PMS7003;6186;52.022;4.692;2023-03-24T15:07:37;2.80;2.40;0.00
12246;PMS7003;6186;52.022;4.692;2023-03-24T15:10:03;2.00;2.00;0.00
12246;PMS7003;6186;52.022;4.692;2023-03-24T15:12:29;1.00;1.00;0.00
12246;PMS7003;6186;52.022;4.692;2023-03-24T15:14:54;2.25;2.00;0.00
12246;PMS7003;6186;52.022;4.692;2023-03-24T15:17:21;1.80;1.20;0.00
12246;PMS7003;6186;52.022;4.692;2023-03-24T15:19:51;2.80;2.00;0.20
12246;PMS7003;6186;52.022;4.692;2023-03-24T15:22:18;2.00;2.00;0.00
12246;PMS7003;6186;52.022;4.692;2023-03-24T15:24:47;3.20;2.00;0.00
12246;PMS7003;6186;52.022;4.692;2023-03-24T15:29:41;3.00;2.00;0.00
12246;PMS7003;6186;52.022;4.692;2023-03-24T15:32:14;2.40;2.00;0.20
12246;PMS7003;6186;52.022;4.692;2023-03-24T15:35:04;2.40;2.00;0.00
12246;PMS7003;6186;52.022;4.692;2023-03-24T15:37:31;2.80;2.00;0.00
12246;PMS7003;6186;52.022;4.692;2023-03-24T15:39:57;3.20;2.80;0.00
12246;PMS7003;6186;52.022;4.692;2023-03-24T15:42:22;2.25;2.00;0.00
12246;PMS7003;6186;52.022;4.692;2023-03-24T15:44:49;2.00;2.00;0.00
12246;PMS7003;6186;52.022;4.692;2023-03-24T15:47:23;2.80;2.00;0.00
12246;PMS7003;6186;52.022;4.692;2023-03-24T15:49:57;3.00;3.00;0.00
12246;PMS7003;6186;52.022;4.692;2023-03-24T15:54:52;1.00;1.00;0.00
12246;PMS7003;6186;52.022;4.692;2023-03-24T15:57:24;3.00;2.00;0.00
12246;PMS7003;6186;52.022;4.692;2023-03-24T16:02:27;1.00;1.00;0.00
12246;PMS7003;6186;52.022;4.692;2023-03-24T16:04:58;2.20;2.20;0.00
12246;PMS7003;6186;52.022;4.692;2023-03-24T16:07:32;2.00;2.00;0.00
12246;PMS7003;6186;52.022;4.692;2023-03-24T16:10:00;2.00;2.00;0.00
12246;PMS7003;6186;52.022;4.692;2023-03-24T16:12:34;2.00;2.00;0.00
12246;PMS7003;6186;52.022;4.692;2023-03-24T16:15:00;1.80;1.00;0.00
12246;PMS7003;6186;52.022;4.692;2023-03-24T16:17:28;2.60;2.00;0.00
12246;PMS7003;6186;52.022;4.692;2023-03-24T16:19:54;2.50;2.50;0.50
12246;PMS7003;6186;52.022;4.692;2023-03-24T16:22:19;2.75;2.75;0.00
12246;PMS7003;6186;52.022;4.692;2023-03-24T16:24:45;2.00;2.00;0.00
12246;PMS7003;6186;52.022;4.692;2023-03-24T16:27:10;2.75;1.75;0.00
12246;PMS7003;6186;52.022;4.692;2023-03-24T16:29:36;2.00;1.00;0.00
12246;PMS7003;6186;52.022;4.692;2023-03-24T16:32:02;2.00;2.00;0.20
12246;PMS7003;6186;52.022;4.692;2023-03-24T16:34:28;1.75;1.75;0.00
12246;PMS7003;6186;52.022;4.692;2023-03-24T16:36:53;1.75;1.00;0.00
12246;PMS7003;6186;52.022;4.692;2023-03-24T16:39:20;2.00;1.60;0.00
12246;PMS7003;6186;52.022;4.692;2023-03-24T16:41:47;1.00;1.00;0.00
12246;PMS7003;6186;52.022;4.692;2023-03-24T16:44:13;2.00;2.00;0.00
12246;PMS7003;6186;52.022;4.692;2023-03-24T16:46:39;2.00;2.00;0.00
12246;PMS7003;6186;52.022;4.692;2023-03-24T16:49:05;3.00;1.80;0.00
12246;PMS7003;6186;52.022;4.692;2023-03-24T16:51:32;1.60;1.00;0.00
12246;PMS7003;6186;52.022;4.692;2023-03-24T16:53:58;1.60;1.00;0.00
12246;PMS7003;6186;52.022;4.692;2023-03-24T16:56:24;2.20;2.00;0.00
12246;PMS7003;6186;52.022;4.692;2023-03-24T16:58:50;2.00;2.00;0.00
12246;PMS7003;6186;52.022;4.692;2023-03-24T17:01:26;3.00;2.00;0.00
12246;PMS7003;6186;52.022;4.692;2023-03-24T17:03:55;2.80;2.00;0.00
12246;PMS7003;6186;52.022;4.692;2023-03-24T17:06:22;2.00;2.00;0.00
12246;PMS7003;6186;52.022;4.692;2023-03-24T17:08:48;2.00;2.00;0.00
12246;PMS7003;6186;52.022;4.692;2023-03-24T17:11:15;1.00;1.00;0.00
12246;PMS7003;6186;52.022;4.692;2023-03-24T17:13:43;2.20;1.80;0.00
12246;PMS7003;6186;52.022;4.692;2023-03-24T17:16:09;2.25;2.25;0.00
12246;PMS7003;6186;52.022;4.692;2023-03-24T17:18:35;2.00;2.00;0.00
12246;PMS7003;6186;52.022;4.692;2023-03-24T17:21:04;1.60;1.60;0.00
12246;PMS7003;6186;52.022;4.692;2023-03-24T17:23:41;2.60;2.60;0.00
12246;PMS7003;6186;52.022;4.692;2023-03-24T17:26:08;1.60;1.60;0.00
12246;PMS7003;6186;52.022;4.692;2023-03-24T17:28:33;3.00;2.00;0.00
12246;PMS7003;6186;52.022;4.692;2023-03-24T17:30:58;2.00;2.00;0.00
12246;PMS7003;6186;52.022;4.692;2023-03-24T17:33:24;3.00;3.00;0.25
12246;PMS7003;6186;52.022;4.692;2023-03-24T17:35:49;2.75;1.25;0.00
12246;PMS7003;6186;52.022;4.692;2023-03-24T17:38:16;2.00;2.00;0.00
12246;PMS7003;6186;52.022;4.692;2023-03-24T17:40:42;2.00;2.00;0.00
12246;PMS7003;6186;52.022;4.692;2023-03-24T17:43:08;2.80;2.00;0.00
12246;PMS7003;6186;52.022;4.692;2023-03-24T17:45:33;1.00;1.00;0.00